TENO2: Tenkiller Lake

Data processed at Sat Jul 14 2018 23:30


All information presented herein is the property of the government of the United States of America and may be revised or deleted at any time without prior notice.
Dissemination of this information without the expressed written consent of the Public Affairs Office, Tulsa District U.S. Army Corps of Engineers is strictly prohibited.
These data are gathered electronically and, as presented, have not undergone any form of quality control. These data are not guaranteed to be valid or correct.
Go to home page.
Go to station list.

Upstream stations:

Downstream station:
Previous Day
Next Day
Current Day
    
SHEF ID:       TENO2     Tenkiller Lake
STATION TYPE:  Reservoir
Normal Pool:  Bottom =   594.50, Top =   632.00

               PRECIP PRECIP(A) ELEVATION   STORAGE   TW-ELEV    INFLOW   RELEASE  AIR-TEMP  WIND-DIRWIND-SPEED REL-HUMID SOLAR-RAD   VOLTAGE  BAT-LOAD
                   in        in        ft     ac-ft        ft       cfs       cfs         F       deg       mph         %      W/m2      volt      volt
              Ccp-Rev   Ccp-Rev   Ccp-Rev   Ccp-Rev   Ccp-Rev  Regi-Rev  Regi-Rev   Ccp-Rev   Ccp-Rev   Ccp-Rev   Ccp-Rev   Ccp-Rev   Ccp-Rev   Ccp-Rev
(US/Central)
07/12 00:00      0.00      0.00    630.83    653190    482.37        34       115     74.61    206.00      0.37    100.48      0.00     13.78     13.18
07/12 01:00      0.00      0.00    630.83    653190    482.37        37       115     73.62    249.60      0.25    100.42      0.00     13.78     13.18
07/12 02:00      0.00      0.00    630.83    653190    482.37        38       115     73.27    311.50      0.40    100.48      0.00     13.78     13.24
07/12 03:00      0.00      0.00    630.83    653190    482.37         8       115     72.41    239.20      0.38    100.48      0.00     13.79     13.24
07/12 04:00      0.00      0.00    630.83    653190    482.37         7       115     71.96    236.50      0.40    100.48      0.00     13.78     13.24
07/12 05:00      0.00      0.00    630.83    653190    482.36         6       115     71.42    236.50      0.40    100.48      0.00     13.78     13.24
07/12 06:00      0.01      0.00    630.83    653190    482.36         5       115     70.97    236.50      0.40    100.48      0.00     13.78     13.24
07/12 07:00      0.00      0.00    630.84    653315    482.36         9       115     70.75    236.50      0.40    100.48      8.00     13.78     13.24
07/12 08:00      0.00      0.00    630.84    653315    482.36         9       115     74.50    234.40      0.40    100.54     90.00     13.78     13.12
07/12 09:00      0.00      0.00    630.82    653064    482.36         8       115     77.45    242.80      0.25    100.48    193.00     13.78     13.18
07/12 10:00      0.00      0.00    630.83    653190    482.35         7       115     84.38    261.30      0.11     76.85    497.00     13.78     13.18
07/12 11:00      0.00      0.00    630.83    653190    482.35         6       115     88.34    105.80      0.37     67.15    665.00     13.78     13.18
07/12 12:00      0.00      0.00    630.84    653315    482.34         0       115     89.87    146.60      0.69     55.12    790.00     13.79     13.18
07/12 13:00      0.00      0.00    630.83    653190    482.34         0       115     92.17    125.70      0.61     44.13    877.00     13.79     13.18
07/12 14:00      0.00      0.00    630.83    653190    482.34         0       115     93.72    206.00      1.40     37.91    914.00     13.79     13.18
07/12 15:00      0.00      0.00    630.81    652938    486.96         0      2000     94.71    199.70      0.72     33.45    877.00     13.78     13.12
07/12 16:00      0.00      0.00    630.79    652686    487.08         0      3759     95.25    232.70      0.92     32.60    786.00     13.79     13.12
07/12 17:00      0.00      0.00    630.78    652560    487.11         1      3869     95.81    229.50      0.96     30.52    657.00     13.79     13.12
07/12 18:00      0.00      0.00    630.75    652182    486.60         1      3869     95.04    200.20      0.31     34.86    486.00     13.79     13.18
07/12 19:00      0.00      0.00    630.76    652308    482.96         1       400     93.51    205.40      0.29     42.36    275.00     13.79     13.18
07/12 20:00      0.00      0.00    630.73    651930    482.78         1       225     87.67    234.60      0.47     54.45     61.00     13.79     13.18
07/12 21:00      0.00      0.00    630.73    651930    482.76         1       225     81.52     84.20      0.05     69.65     20.00     13.79     13.18
07/12 22:00      0.00      0.00    630.76    652308    482.75         0       225     77.34    215.90      0.20     81.86      0.00     13.78     13.24
07/12 23:00      0.00      0.00    630.73    651930    482.75         0       225     74.82    184.10      0.26     91.44      1.00     13.79     13.18